Time;durP1;ratioP1;P1;durP2;ratioP2;P2;SDS_P1;SDS_P2;PMS_P1;PMS_P2;Temp;Humidity;BMP_temperature;BMP_pressure;BME280_temperature;BME280_humidity;BME280_pressure;Samples;Min_cycle;Max_cycle;Signal;HPM_P1;HPM_P2
2022/03/13 00:00:49;;;;;;;41.38;15.32;;;1.20;99.90;;;;;;5019749;28;20026;-68
2022/03/13 00:03:17;;;;;;;47.75;14.88;;;1.30;99.90;;;;;;5010627;28;20079;-71
2022/03/13 00:05:45;;;;;;;39.78;15.15;;;1.20;99.90;;;;;;5015288;28;20042;-70
2022/03/13 00:08:32;;;;;;;41.45;16.05;;;1.20;99.90;;;;;;5010691;28;20053;-68
2022/03/13 00:11:05;;;;;;;45.85;16.60;;;1.10;99.90;;;;;;5017886;28;20495;-70
2022/03/13 00:13:32;;;;;;;46.95;15.63;;;1.10;99.90;;;;;;5013297;28;20030;-70
2022/03/13 00:16:08;;;;;;;57.88;19.80;;;1.20;99.90;;;;;;5010689;28;20392;-71
2022/03/13 00:18:35;;;;;;;48.58;17.73;;;1.20;99.90;;;;;;5009496;28;20456;-70
2022/03/13 00:21:03;;;;;;;36.72;12.82;;;1.00;99.90;;;;;;5010810;28;20026;-70
2022/03/13 00:23:33;;;;;;;31.83;11.63;;;1.10;99.90;;;;;;5009621;28;20044;-71
2022/03/13 00:25:59;;;;;;;31.92;12.07;;;1.20;99.90;;;;;;5010482;28;20101;-70
2022/03/13 00:28:25;;;;;;;25.88;10.38;;;1.40;99.90;;;;;;5009244;28;20112;-70
2022/03/13 00:30:51;;;;;;;26.77;10.32;;;1.60;99.90;;;;;;5018168;28;20026;-71
2022/03/13 00:33:17;;;;;;;25.60;9.10;;;1.70;99.90;;;;;;5009210;28;20041;-70
2022/03/13 00:35:43;;;;;;;21.10;8.63;;;1.90;97.40;;;;;;5009205;28;20029;-70
2022/03/13 00:38:08;;;;;;;18.00;8.05;;;2.10;93.60;;;;;;5010134;28;20026;-70
2022/03/13 00:40:35;;;;;;;18.95;7.10;;;2.30;90.30;;;;;;5008616;28;20041;-71
2022/03/13 00:43:01;;;;;;;17.38;7.18;;;2.50;84.90;;;;;;5009873;28;20105;-71
2022/03/13 00:45:28;;;;;;;18.40;7.13;;;2.70;81.40;;;;;;5008405;28;20161;-71
2022/03/13 00:47:53;;;;;;;22.40;7.20;;;2.80;79.70;;;;;;5017232;28;20029;-70
2022/03/13 00:50:19;;;;;;;18.10;7.28;;;2.90;78.00;;;;;;5015130;28;20026;-71
2022/03/13 00:52:45;;;;;;;21.35;8.30;;;2.90;77.80;;;;;;5025822;28;20033;-71
2022/03/13 00:55:11;;;;;;;24.23;9.20;;;2.80;79.20;;;;;;5017122;28;20030;-70
2022/03/13 00:57:37;;;;;;;26.60;9.93;;;2.70;82.10;;;;;;5028225;28;20112;-70
2022/03/13 01:00:05;;;;;;;25.35;9.65;;;2.60;84.70;;;;;;5016373;28;20491;-69
2022/03/13 01:02:32;;;;;;;23.73;8.52;;;2.50;86.10;;;;;;5007307;28;20065;-70
2022/03/13 01:04:57;;;;;;;25.27;9.07;;;2.40;84.50;;;;;;5009610;28;20045;-70
2022/03/13 01:07:23;;;;;;;22.15;8.90;;;2.30;85.40;;;;;;5010572;28;20427;-71
2022/03/13 01:09:49;;;;;;;21.83;8.93;;;2.30;85.70;;;;;;5013862;28;20030;-71
2022/03/13 01:12:14;;;;;;;21.88;8.25;;;2.30;86.40;;;;;;5009287;28;20083;-67
2022/03/13 01:14:40;;;;;;;21.60;8.13;;;2.30;84.10;;;;;;5010100;28;20030;-69
2022/03/13 01:17:08;;;;;;;17.17;7.35;;;2.30;82.90;;;;;;5010075;28;20762;-70
2022/03/13 01:19:34;;;;;;;16.65;6.72;;;2.40;80.90;;;;;;5015298;28;20062;-71
2022/03/13 01:22:01;;;;;;;15.45;6.15;;;2.50;78.10;;;;;;5009745;28;20046;-70
2022/03/13 01:24:37;;;;;;;16.63;7.05;;;2.60;75.20;;;;;;5008440;28;20045;-71
2022/03/13 01:27:03;;;;;;;13.68;5.90;;;2.70;74.40;;;;;;5010746;28;20030;-71
2022/03/13 01:29:31;;;;;;;14.73;6.35;;;2.70;73.00;;;;;;5012248;28;20037;-71
2022/03/13 01:31:58;;;;;;;14.32;5.40;;;2.70;72.10;;;;;;5009597;28;20041;-71
2022/03/13 01:34:36;;;;;;;18.80;6.40;;;2.80;70.30;;;;;;5008523;28;20038;-71
2022/03/13 01:37:10;;;;;;;16.73;5.65;;;2.90;68.40;;;;;;5023737;28;20563;-70
2022/03/13 01:39:37;;;;;;;15.88;6.18;;;2.90;68.50;;;;;;5008695;28;20029;-70
2022/03/13 01:42:04;;;;;;;16.10;6.50;;;3.00;68.20;;;;;;5009031;28;20026;-71
2022/03/13 01:44:30;;;;;;;18.02;6.50;;;2.90;69.80;;;;;;5008775;28;20472;-70
2022/03/13 01:46:56;;;;;;;19.23;7.05;;;2.80;69.80;;;;;;5007452;28;20542;-70
2022/03/13 01:49:23;;;;;;;28.10;6.95;;;2.80;69.60;;;;;;5028388;28;20088;-70
2022/03/13 01:51:48;;;;;;;19.58;6.53;;;2.70;70.10;;;;;;5015273;28;20464;-70
2022/03/13 01:54:14;;;;;;;20.98;7.50;;;2.70;72.20;;;;;;5009013;28;20033;-70
2022/03/13 01:56:41;;;;;;;19.75;7.82;;;2.50;74.20;;;;;;5008943;28;20030;-69
2022/03/13 01:59:09;;;;;;;29.88;11.27;;;2.30;76.30;;;;;;5026090;28;20030;-69
2022/03/13 02:01:37;;;;;;;23.52;9.13;;;2.20;81.10;;;;;;5008054;28;20034;-70
2022/03/13 02:04:03;;;;;;;17.73;7.25;;;2.00;84.60;;;;;;5009415;28;20481;-70
2022/03/13 02:06:29;;;;;;;18.15;7.55;;;1.80;81.20;;;;;;5007778;28;20057;-71
2022/03/13 02:08:56;;;;;;;25.13;10.23;;;1.80;79.40;;;;;;5010304;28;20033;-70
2022/03/13 02:11:24;;;;;;;36.88;13.40;;;1.90;81.00;;;;;;5006140;28;20038;-70
2022/03/13 02:13:52;;;;;;;32.50;12.15;;;1.80;90.80;;;;;;5009826;28;20117;-70
2022/03/13 02:16:20;;;;;;;28.63;11.90;;;1.60;90.50;;;;;;5009306;28;20033;-67
2022/03/13 02:18:50;;;;;;;32.63;12.25;;;1.50;93.10;;;;;;5010868;28;20114;-70
2022/03/13 02:21:24;;;;;;;36.70;13.77;;;1.30;93.00;;;;;;4997755;28;20026;-70
2022/03/13 02:23:50;;;;;;;38.08;14.32;;;1.10;99.20;;;;;;5012058;28;20499;-70
2022/03/13 02:26:16;;;;;;;34.83;13.25;;;0.80;99.90;;;;;;5013470;28;20113;-70
2022/03/13 02:28:51;;;;;;;32.22;12.50;;;0.80;99.90;;;;;;5011682;28;20029;-70
2022/03/13 02:31:22;;;;;;;25.20;9.98;;;0.60;99.90;;;;;;5012170;28;20625;-70
2022/03/13 02:33:51;;;;;;;17.35;7.57;;;0.60;99.90;;;;;;5012141;28;20046;-70
2022/03/13 02:36:32;;;;;;;27.83;9.90;;;0.70;97.00;;;;;;5012058;28;20042;-70
2022/03/13 02:38:59;;;;;;;23.48;9.30;;;0.80;99.10;;;;;;5029655;28;20025;-70
2022/03/13 02:41:26;;;;;;;36.70;13.55;;;0.80;99.90;;;;;;5011125;28;20038;-70
2022/03/13 02:43:53;;;;;;;39.13;12.98;;;0.70;99.90;;;;;;5014531;28;20125;-70
2022/03/13 02:46:21;;;;;;;35.13;12.77;;;0.50;99.90;;;;;;5012339;28;20026;-67
2022/03/13 02:48:48;;;;;;;20.70;9.30;;;0.40;99.90;;;;;;5011942;28;20141;-70
2022/03/13 02:51:14;;;;;;;19.75;8.70;;;0.40;99.90;;;;;;5009772;28;20503;-70
2022/03/13 02:53:40;;;;;;;33.33;12.98;;;0.40;99.90;;;;;;5011760;28;20030;-70
2022/03/13 02:56:06;;;;;;;36.30;12.43;;;0.50;99.90;;;;;;5023412;28;20428;-69
2022/03/13 02:58:35;;;;;;;36.40;12.88;;;0.30;99.90;;;;;;5013033;28;20037;-70
2022/03/13 03:01:01;;;;;;;30.95;10.70;;;0.20;99.90;;;;;;5007355;28;20034;-70
2022/03/13 03:03:26;;;;;;;30.33;11.38;;;0.10;99.90;;;;;;5013990;28;20630;-69
2022/03/13 03:05:53;;;;;;;31.33;11.20;;;0.10;99.90;;;;;;4996048;28;20041;-69
2022/03/13 03:08:19;;;;;;;36.17;13.18;;;0.10;99.90;;;;;;5012134;28;20033;-70
2022/03/13 03:10:45;;;;;;;33.33;12.38;;;0.20;99.90;;;;;;5010874;28;20037;-70
2022/03/13 03:13:13;;;;;;;27.63;12.32;;;0.20;99.90;;;;;;5010834;28;20762;-70
2022/03/13 03:15:39;;;;;;;27.00;10.13;;;0.10;99.90;;;;;;5011138;28;20029;-70
2022/03/13 03:18:09;;;;;;;34.20;13.13;;;0.10;99.90;;;;;;5011974;28;20511;-71
2022/03/13 03:20:35;;;;;;;39.30;14.65;;;0.10;99.90;;;;;;5010517;28;20036;-70
2022/03/13 03:23:01;;;;;;;39.72;14.35;;;-0.10;99.90;;;;;;5014872;28;20113;-69
2022/03/13 03:25:28;;;;;;;31.52;13.27;;;-0.20;99.90;;;;;;5009986;28;20040;-69
2022/03/13 03:27:56;;;;;;;34.05;12.05;;;-0.20;99.90;;;;;;5011754;28;20053;-70
2022/03/13 03:30:24;;;;;;;35.08;12.60;;;-0.30;99.90;;;;;;5009737;28;20404;-67
2022/03/13 03:32:50;;;;;;;32.85;12.98;;;-0.40;99.90;;;;;;5016415;28;20041;-70
2022/03/13 03:35:17;;;;;;;38.85;13.52;;;-0.40;99.90;;;;;;5009668;28;20136;-69
2022/03/13 03:37:43;;;;;;;31.38;12.98;;;-0.30;99.90;;;;;;5010328;28;20614;-69
2022/03/13 03:40:10;;;;;;;49.15;16.05;;;-0.30;99.90;;;;;;5011038;28;20032;-70
2022/03/13 03:42:36;;;;;;;41.17;15.73;;;-0.40;99.90;;;;;;5010486;28;20404;-70
2022/03/13 03:45:02;;;;;;;43.70;14.65;;;-0.60;99.90;;;;;;5014509;28;20034;-69
2022/03/13 03:47:28;;;;;;;38.92;14.35;;;-0.90;99.90;;;;;;5018003;28;20549;-70
2022/03/13 03:49:54;;;;;;;37.85;13.18;;;-0.80;99.90;;;;;;5011303;28;20057;-70
2022/03/13 03:52:20;;;;;;;33.55;12.55;;;-0.80;99.90;;;;;;5014673;28;20045;-69
2022/03/13 03:54:45;;;;;;;35.88;12.90;;;-0.80;99.90;;;;;;5009799;28;20511;-69
2022/03/13 03:57:11;;;;;;;21.73;8.45;;;-0.70;99.90;;;;;;5029956;28;20026;-69
2022/03/13 03:59:36;;;;;;;20.90;7.65;;;-0.70;99.90;;;;;;5033040;28;20037;-70
2022/03/13 04:02:02;;;;;;;28.17;10.25;;;-0.70;99.90;;;;;;5010248;28;20041;-70
2022/03/13 04:04:28;;;;;;;27.20;9.25;;;-0.60;99.90;;;;;;5011332;28;20061;-69
2022/03/13 04:06:54;;;;;;;31.08;11.05;;;-0.70;99.90;;;;;;5010881;28;20079;-69
2022/03/13 04:09:19;;;;;;;35.67;13.38;;;-0.80;99.90;;;;;;5009629;28;20405;-69
2022/03/13 04:11:46;;;;;;;43.42;13.90;;;-0.80;99.90;;;;;;5029485;28;20475;-69
2022/03/13 04:14:12;;;;;;;36.72;13.05;;;-1.00;99.90;;;;;;5014974;28;20026;-69
2022/03/13 04:16:38;;;;;;;35.90;12.82;;;-1.10;99.90;;;;;;5008417;28;20057;-69
2022/03/13 04:19:04;;;;;;;32.20;11.43;;;-1.10;99.90;;;;;;5018051;28;20029;-69
2022/03/13 04:21:30;;;;;;;23.55;8.45;;;-1.20;99.90;;;;;;5012759;28;20041;-69
2022/03/13 04:23:56;;;;;;;21.48;8.38;;;-1.10;99.90;;;;;;5015862;28;20038;-69
2022/03/13 04:26:25;;;;;;;25.65;8.95;;;-1.10;99.90;;;;;;5019500;28;20048;-68
2022/03/13 04:28:51;;;;;;;33.42;11.75;;;-1.00;99.90;;;;;;5017294;28;20029;-69
2022/03/13 04:31:18;;;;;;;29.83;11.10;;;-1.00;99.90;;;;;;5026667;28;20589;-69
2022/03/13 04:33:44;;;;;;;25.33;10.05;;;-1.20;99.90;;;;;;5027181;28;20513;-69
2022/03/13 04:36:13;;;;;;;23.73;8.63;;;-1.30;99.90;;;;;;5016323;28;20104;-69
2022/03/13 04:38:39;;;;;;;21.25;8.02;;;-1.20;99.90;;;;;;5008985;28;20048;-68
2022/03/13 04:41:05;;;;;;;22.02;8.68;;;-1.20;99.90;;;;;;5017721;28;20034;-69
2022/03/13 04:43:30;;;;;;;21.48;7.60;;;-1.20;99.90;;;;;;5010499;28;20040;-69
2022/03/13 04:45:56;;;;;;;20.65;7.80;;;-1.20;99.90;;;;;;5029949;28;20060;-69
2022/03/13 04:48:22;;;;;;;22.95;7.65;;;-1.20;99.90;;;;;;5025249;28;20482;-69
2022/03/13 04:50:47;;;;;;;22.33;7.93;;;-1.10;99.90;;;;;;5019116;28;20032;-67
2022/03/13 04:53:14;;;;;;;17.98;6.90;;;-1.20;99.90;;;;;;5018343;28;20534;-69
2022/03/13 04:55:40;;;;;;;21.27;7.22;;;-1.10;99.90;;;;;;5024794;28;20028;-68
2022/03/13 04:58:06;;;;;;;15.73;6.63;;;-1.10;99.90;;;;;;5008475;28;20501;-69
2022/03/13 05:00:32;;;;;;;17.92;6.57;;;-1.00;99.90;;;;;;5022117;28;20091;-68
2022/03/13 05:02:59;;;;;;;17.50;6.05;;;-0.80;99.90;;;;;;5011831;28;20062;-69
2022/03/13 05:05:25;;;;;;;19.02;6.40;;;-0.60;99.90;;;;;;5016671;28;20042;-69
2022/03/13 05:07:51;;;;;;;17.27;6.80;;;-0.50;99.90;;;;;;5009473;28;20112;-68
2022/03/13 05:10:19;;;;;;;14.70;6.05;;;-0.20;99.90;;;;;;5016000;28;20044;-68
2022/03/13 05:12:46;;;;;;;13.80;5.57;;;-0.10;99.90;;;;;;5016410;28;20427;-68
2022/03/13 05:15:12;;;;;;;14.32;5.57;;;-0.10;99.90;;;;;;5009308;28;20026;-67
2022/03/13 05:17:38;;;;;;;17.88;6.32;;;0.00;99.90;;;;;;5008648;28;20032;-67
2022/03/13 05:20:05;;;;;;;14.05;6.40;;;0.00;99.00;;;;;;5009448;28;20053;-69
2022/03/13 05:22:31;;;;;;;15.20;5.82;;;0.10;98.20;;;;;;5009379;28;20468;-65
2022/03/13 05:24:57;;;;;;;16.88;5.78;;;0.20;96.50;;;;;;5017509;28;20080;-69
2022/03/13 05:27:23;;;;;;;21.02;7.13;;;0.20;95.80;;;;;;5009678;28;20037;-69
2022/03/13 05:29:49;;;;;;;15.02;5.93;;;0.30;96.20;;;;;;5010687;28;20022;-69
2022/03/13 05:32:15;;;;;;;15.82;6.50;;;0.30;95.50;;;;;;5008643;28;20041;-69
2022/03/13 05:34:40;;;;;;;14.25;5.82;;;0.20;96.70;;;;;;5008547;28;20042;-68
2022/03/13 05:37:07;;;;;;;15.45;6.20;;;0.20;95.60;;;;;;5008277;28;20391;-69
2022/03/13 05:39:33;;;;;;;17.75;5.50;;;0.20;95.40;;;;;;5008033;28;20026;-66
2022/03/13 05:41:59;;;;;;;15.93;5.93;;;0.20;95.40;;;;;;5009515;28;20554;-68
2022/03/13 05:44:26;;;;;;;21.90;6.70;;;0.20;94.90;;;;;;5007221;28;20065;-68
2022/03/13 05:46:51;;;;;;;19.60;6.32;;;0.20;94.20;;;;;;5009697;28;20644;-69
2022/03/13 05:49:17;;;;;;;15.98;5.80;;;0.30;93.80;;;;;;5029012;28;20038;-68
2022/03/13 05:51:43;;;;;;;18.98;7.10;;;0.40;92.90;;;;;;5008691;28;20022;-69
2022/03/13 05:54:09;;;;;;;16.10;6.63;;;0.50;92.00;;;;;;5013486;28;20026;-68
2022/03/13 05:56:36;;;;;;;21.67;7.65;;;0.50;92.80;;;;;;5015062;28;20033;-67
2022/03/13 05:59:01;;;;;;;15.98;6.25;;;0.40;97.00;;;;;;5012735;28;20503;-68
2022/03/13 06:01:27;;;;;;;13.60;5.85;;;0.30;94.90;;;;;;5012603;28;20038;-68
2022/03/13 06:03:53;;;;;;;14.38;5.78;;;0.30;94.10;;;;;;5012816;28;20678;-69
2022/03/13 06:06:20;;;;;;;14.27;5.68;;;0.40;92.90;;;;;;5012474;28;20037;-69
2022/03/13 06:08:46;;;;;;;16.98;5.35;;;0.50;92.00;;;;;;5011213;28;20022;-69
2022/03/13 06:11:12;;;;;;;14.57;6.00;;;0.60;91.50;;;;;;5012898;28;20036;-68
2022/03/13 06:13:38;;;;;;;15.60;6.07;;;0.70;91.90;;;;;;5016716;28;20061;-68
2022/03/13 06:16:04;;;;;;;28.13;6.80;;;0.70;92.30;;;;;;5013222;28;20096;-69
2022/03/13 06:18:32;;;;;;;15.50;6.15;;;0.80;92.00;;;;;;5014223;28;20092;-69
2022/03/13 06:20:58;;;;;;;23.77;6.28;;;0.80;91.10;;;;;;5012973;28;20423;-69
2022/03/13 06:23:24;;;;;;;17.85;6.93;;;0.90;90.40;;;;;;5020944;28;20088;-69
2022/03/13 06:25:50;;;;;;;19.85;7.03;;;1.00;89.40;;;;;;5026077;28;20487;-69
2022/03/13 06:28:18;;;;;;;17.02;6.78;;;1.20;88.00;;;;;;5005848;28;20068;-69
2022/03/13 06:30:44;;;;;;;16.30;6.53;;;1.30;87.40;;;;;;5006279;28;20022;-68
2022/03/13 06:33:10;;;;;;;20.20;6.90;;;1.40;86.40;;;;;;5013526;28;20029;-69
2022/03/13 06:35:36;;;;;;;12.30;5.30;;;1.50;85.80;;;;;;5013589;28;20042;-68
2022/03/13 06:38:01;;;;;;;23.92;6.38;;;1.60;85.10;;;;;;5013906;28;20113;-69
2022/03/13 06:40:28;;;;;;;16.63;5.90;;;1.70;84.40;;;;;;5008341;28;20062;-71
2022/03/13 06:42:55;;;;;;;15.77;5.95;;;1.70;83.90;;;;;;5009463;28;20030;-71
2022/03/13 06:45:21;;;;;;;14.30;6.07;;;1.70;84.00;;;;;;5010773;28;20037;-69
2022/03/13 06:47:49;;;;;;;17.52;7.00;;;1.80;83.30;;;;;;5009664;28;20029;-69
2022/03/13 06:50:17;;;;;;;14.90;6.05;;;1.90;83.50;;;;;;5014165;28;20056;-69
2022/03/13 06:52:47;;;;;;;17.10;5.97;;;2.00;82.70;;;;;;5010955;28;20045;-68
2022/03/13 06:55:14;;;;;;;15.25;6.45;;;2.10;82.10;;;;;;5013116;28;20539;-69
2022/03/13 06:57:44;;;;;;;17.42;6.70;;;2.20;80.60;;;;;;5011194;28;20032;-69
2022/03/13 07:00:15;;;;;;;14.93;6.25;;;2.40;78.90;;;;;;5012153;28;20030;-70
2022/03/13 07:02:41;;;;;;;15.75;6.57;;;2.50;79.30;;;;;;5027477;28;20531;-69
2022/03/13 07:05:07;;;;;;;18.90;7.68;;;2.60;78.60;;;;;;5018359;28;20072;-70
2022/03/13 07:07:32;;;;;;;19.25;6.90;;;2.60;78.10;;;;;;5011479;28;20081;-68
2022/03/13 07:09:58;;;;;;;15.85;7.07;;;2.70;77.90;;;;;;5009952;28;20042;-67
2022/03/13 07:12:25;;;;;;;19.45;6.97;;;2.70;79.30;;;;;;5009189;28;20087;-71
2022/03/13 07:14:52;;;;;;;18.65;7.53;;;2.80;77.70;;;;;;5011021;28;20065;-69
2022/03/13 07:17:18;;;;;;;18.27;6.95;;;2.90;78.80;;;;;;5009452;28;20030;-70
2022/03/13 07:19:45;;;;;;;22.13;6.75;;;3.00;77.70;;;;;;5010800;28;20045;-69
2022/03/13 07:22:13;;;;;;;16.70;6.70;;;3.10;77.30;;;;;;5012363;28;20030;-69
2022/03/13 07:24:39;;;;;;;25.95;7.63;;;3.20;75.90;;;;;;5009981;28;20065;-67
2022/03/13 07:27:05;;;;;;;17.35;7.15;;;3.40;75.50;;;;;;5011233;28;20034;-70
2022/03/13 07:29:31;;;;;;;17.17;7.18;;;3.50;76.20;;;;;;5019185;28;20045;-70
2022/03/13 07:31:57;;;;;;;20.48;6.65;;;3.60;73.90;;;;;;5009336;28;20037;-70
2022/03/13 07:34:27;;;;;;;16.23;7.18;;;3.70;75.10;;;;;;5021993;28;20500;-70
2022/03/13 07:36:53;;;;;;;;;;;3.80;74.00;;;;;;5010269;28;20038;-72
2022/03/13 07:39:24;;;;;;;17.73;6.68;;;3.90;73.50;;;;;;5012390;28;19917;-70
2022/03/13 07:41:51;;;;;;;18.10;7.50;;;4.00;73.30;;;;;;5006438;28;20096;-70
2022/03/13 07:44:17;;;;;;;15.52;6.25;;;4.10;71.10;;;;;;5011198;28;20040;-70
2022/03/13 07:46:43;;;;;;;17.75;7.13;;;4.30;70.80;;;;;;5009242;28;20578;-69
2022/03/13 07:49:09;;;;;;;22.13;7.75;;;4.50;70.00;;;;;;5015301;28;20108;-70
2022/03/13 07:51:35;;;;;;;18.35;7.65;;;4.60;68.70;;;;;;5009705;28;20099;-69
2022/03/13 07:54:02;;;;;;;19.77;7.75;;;4.80;67.50;;;;;;5010121;28;20037;-68
2022/03/13 07:56:28;;;;;;;15.90;7.03;;;4.90;66.10;;;;;;5010547;28;20034;-70
2022/03/13 07:58:54;;;;;;;18.38;7.43;;;5.10;65.30;;;;;;5010022;28;20057;-70
2022/03/13 08:01:19;;;;;;;17.92;8.20;;;5.30;65.70;;;;;;5009054;28;20049;-70
2022/03/13 08:03:45;;;;;;;18.80;8.77;;;5.40;64.60;;;;;;5010012;28;20061;-69
2022/03/13 08:06:12;;;;;;;24.90;7.97;;;5.50;63.30;;;;;;5010717;28;20053;-69
2022/03/13 08:08:38;;;;;;;19.90;7.63;;;5.70;62.00;;;;;;5010147;28;20044;-68
2022/03/13 08:11:04;;;;;;;18.27;7.38;;;5.80;60.70;;;;;;5009964;28;20037;-70
2022/03/13 08:13:29;;;;;;;17.38;7.82;;;5.90;62.00;;;;;;5009028;28;20487;-69
2022/03/13 08:15:55;;;;;;;20.05;8.05;;;6.10;62.70;;;;;;5008977;28;20072;-68
2022/03/13 08:18:21;;;;;;;18.52;7.57;;;6.30;60.20;;;;;;5010943;28;20034;-70
2022/03/13 08:20:47;;;;;;;16.95;7.57;;;6.30;59.10;;;;;;5007535;28;20091;-70
2022/03/13 08:23:13;;;;;;;17.33;8.00;;;6.40;62.30;;;;;;5007946;28;20100;-67
2022/03/13 08:25:39;;;;;;;20.48;8.52;;;6.60;59.20;;;;;;5010308;28;20033;-65
2022/03/13 08:28:06;;;;;;;19.15;8.10;;;6.70;60.90;;;;;;5009878;28;20084;-68
2022/03/13 08:30:32;;;;;;;19.27;7.82;;;6.90;58.60;;;;;;5010001;28;20104;-67
2022/03/13 08:32:58;;;;;;;20.00;8.30;;;7.00;59.30;;;;;;5007978;28;20096;-68
2022/03/13 08:35:24;;;;;;;19.63;8.20;;;7.20;61.00;;;;;;5009622;28;20034;-68
2022/03/13 08:37:51;;;;;;;20.52;8.52;;;7.40;58.00;;;;;;5008135;28;20099;-67
2022/03/13 08:40:17;;;;;;;20.02;8.70;;;7.40;58.10;;;;;;5010400;28;20034;-68
2022/03/13 08:42:43;;;;;;;16.15;7.93;;;7.40;56.90;;;;;;5009798;28;20072;-64
2022/03/13 08:45:11;;;;;;;23.38;8.63;;;7.60;58.80;;;;;;5009693;28;20033;-67
2022/03/13 08:47:38;;;;;;;18.52;8.55;;;7.80;58.70;;;;;;5010252;28;20037;-67
2022/03/13 08:50:05;;;;;;;18.58;8.93;;;8.00;57.30;;;;;;5009329;28;20872;-66
2022/03/13 08:52:31;;;;;;;21.17;8.98;;;8.20;56.90;;;;;;5009900;28;20144;-68
2022/03/13 08:54:56;;;;;;;20.88;8.90;;;8.20;56.10;;;;;;5009379;28;20041;-68
2022/03/13 08:57:22;;;;;;;20.98;8.73;;;8.30;55.60;;;;;;5010072;28;20034;-67
2022/03/13 08:59:48;;;;;;;24.65;9.50;;;8.50;55.40;;;;;;5008961;28;20473;-67
2022/03/13 09:02:17;;;;;;;23.80;8.80;;;8.60;55.80;;;;;;5009483;28;20508;-67
2022/03/13 09:04:43;;;;;;;25.40;9.65;;;8.90;55.60;;;;;;5009608;28;20115;-65
2022/03/13 09:07:10;;;;;;;25.48;9.82;;;9.00;56.10;;;;;;5010018;28;20120;-68
2022/03/13 09:09:36;;;;;;;22.60;9.75;;;9.10;56.10;;;;;;5008689;28;20030;-68
2022/03/13 09:12:02;;;;;;;22.23;9.80;;;9.30;56.30;;;;;;5009315;28;20102;-69
2022/03/13 09:14:28;;;;;;;27.77;10.38;;;9.40;54.40;;;;;;5009785;28;20065;-69
2022/03/13 09:16:54;;;;;;;24.55;10.85;;;9.40;54.10;;;;;;5009053;28;20443;-68
2022/03/13 09:19:20;;;;;;;24.75;10.25;;;9.50;54.20;;;;;;5009848;28;20026;-68
2022/03/13 09:21:46;;;;;;;24.23;10.48;;;9.70;54.30;;;;;;5009120;28;20030;-68
2022/03/13 09:24:12;;;;;;;24.17;11.10;;;9.80;53.40;;;;;;5010109;28;20034;-68
2022/03/13 09:26:41;;;;;;;29.13;11.93;;;9.90;54.10;;;;;;5041062;28;20026;-69
2022/03/13 09:29:07;;;;;;;25.65;11.25;;;10.10;54.00;;;;;;5007044;28;20543;-68
2022/03/13 09:31:34;;;;;;;25.88;11.25;;;10.20;53.50;;;;;;5009758;28;20091;-68
2022/03/13 09:33:59;;;;;;;24.27;11.07;;;10.40;52.60;;;;;;5008897;28;20061;-68
2022/03/13 09:36:25;;;;;;;25.17;10.57;;;10.40;52.20;;;;;;5009739;28;20033;-69
2022/03/13 09:38:52;;;;;;;23.23;10.80;;;10.60;52.90;;;;;;5008739;28;20033;-68
2022/03/13 09:41:19;;;;;;;27.58;10.93;;;10.70;52.00;;;;;;5010014;28;20034;-68
2022/03/13 09:43:45;;;;;;;27.98;11.23;;;10.90;52.50;;;;;;5007807;28;20113;-67
2022/03/13 09:46:11;;;;;;;23.85;10.27;;;10.90;51.40;;;;;;5008403;28;20041;-71
2022/03/13 09:48:37;;;;;;;26.38;11.10;;;11.10;52.00;;;;;;4986909;28;20519;-67
2022/03/13 09:51:04;;;;;;;25.60;11.30;;;11.10;51.20;;;;;;4992651;28;20035;-69
2022/03/13 09:53:34;;;;;;;26.30;11.63;;;11.20;51.80;;;;;;5009605;28;20215;-68
2022/03/13 09:56:01;;;;;;;24.35;11.50;;;11.50;53.10;;;;;;5006935;28;20041;-68
2022/03/13 09:58:29;;;;;;;28.20;12.77;;;11.80;51.60;;;;;;5010266;28;20057;-67
2022/03/13 10:00:55;;;;;;;25.83;11.55;;;12.00;50.90;;;;;;5002881;28;20072;-70
2022/03/13 10:03:21;;;;;;;29.35;12.82;;;11.90;49.80;;;;;;5009626;28;20070;-69
2022/03/13 10:05:48;;;;;;;26.17;11.45;;;12.10;50.70;;;;;;4993925;28;20499;-66
2022/03/13 10:08:16;;;;;;;31.38;12.35;;;12.20;49.80;;;;;;5015996;28;20038;-67
2022/03/13 10:10:42;;;;;;;28.23;12.50;;;12.50;50.20;;;;;;4987624;28;20833;-71
2022/03/13 10:13:09;;;;;;;29.33;12.73;;;12.50;49.70;;;;;;4991491;28;20030;-73
2022/03/13 10:15:48;;;;;;;30.35;12.82;;;12.50;48.80;;;;;;4998106;28;20082;-70
2022/03/13 10:18:19;;;;;;;30.80;13.48;;;12.60;49.20;;;;;;4996300;28;20081;-68
2022/03/13 10:20:48;;;;;;;30.25;13.55;;;12.60;48.40;;;;;;4993293;28;20042;-69
2022/03/13 10:23:19;;;;;;;32.70;14.90;;;12.60;49.60;;;;;;4994525;28;20060;-70
2022/03/13 10:25:47;;;;;;;32.85;13.18;;;12.70;48.80;;;;;;5015189;28;20053;-69
2022/03/13 10:28:19;;;;;;;30.80;13.48;;;12.70;49.20;;;;;;4999071;28;20041;-70
2022/03/13 10:31:06;;;;;;;32.05;14.25;;;12.90;48.70;;;;;;5011829;28;20400;-69
2022/03/13 10:33:44;;;;;;;29.95;13.63;;;12.90;48.30;;;;;;4998168;28;20069;-71
2022/03/13 10:36:17;;;;;;;32.38;14.40;;;13.00;48.20;;;;;;5009233;28;20183;-67
2022/03/13 10:38:44;;;;;;;31.10;14.02;;;13.30;48.40;;;;;;5001073;28;20577;-69
2022/03/13 10:41:12;;;;;;;32.97;14.93;;;13.40;47.80;;;;;;5010885;28;20090;-70
2022/03/13 10:43:58;;;;;;;36.92;14.13;;;13.60;48.20;;;;;;5000796;28;20112;-70
2022/03/13 10:46:36;;;;;;;32.00;14.73;;;13.60;47.10;;;;;;5006989;28;20128;-68
2022/03/13 10:49:09;;;;;;;33.83;14.68;;;13.70;47.50;;;;;;5002410;28;20041;-69
2022/03/13 10:51:45;;;;;;;35.67;15.15;;;13.70;46.50;;;;;;5010103;28;20060;-70
2022/03/13 10:54:29;;;;;;;34.22;15.30;;;13.70;46.90;;;;;;5004729;28;21321;-69
2022/03/13 10:57:08;;;;;;;36.85;16.73;;;13.80;48.00;;;;;;5014833;28;20049;-72
2022/03/13 10:59:34;;;;;;;40.72;16.42;;;13.80;46.70;;;;;;4998077;28;20092;-72
2022/03/13 11:02:12;;;;;;;38.20;16.27;;;13.70;46.60;;;;;;5015139;28;20061;-70
2022/03/13 11:04:51;;;;;;;41.15;16.60;;;13.80;47.10;;;;;;4997411;28;20049;-70
2022/03/13 11:07:18;;;;;;;37.53;16.65;;;14.10;48.40;;;;;;5020079;28;20695;-70
2022/03/13 11:09:44;;;;;;;37.10;16.20;;;14.40;46.60;;;;;;4997350;28;20030;-68
2022/03/13 11:12:16;;;;;;;39.97;17.70;;;14.70;46.60;;;;;;5005686;28;21095;-69
2022/03/13 11:14:43;;;;;;;37.78;17.92;;;14.80;46.00;;;;;;4998054;28;20022;-72
2022/03/13 11:17:11;;;;;;;37.17;17.10;;;14.80;45.10;;;;;;5017068;28;20079;-70
2022/03/13 11:19:39;;;;;;;38.55;16.95;;;14.80;46.20;;;;;;4998386;28;20034;-71
2022/03/13 11:22:07;;;;;;;41.67;17.70;;;14.80;45.10;;;;;;5004405;28;20250;-71
2022/03/13 11:24:34;;;;;;;42.90;17.33;;;15.00;44.80;;;;;;4999128;28;20034;-71
2022/03/13 11:27:00;;;;;;;40.42;17.63;;;15.30;44.50;;;;;;5014084;28;20766;-71
2022/03/13 11:29:45;;;;;;;38.80;17.92;;;15.60;45.60;;;;;;4997039;28;20034;-72
2022/03/13 11:32:29;;;;;;;34.33;16.67;;;15.90;44.90;;;;;;5018163;28;20063;-70
2022/03/13 11:35:11;;;;;;;40.38;17.52;;;16.20;46.90;;;;;;4996791;28;20052;-69
2022/03/13 11:37:37;;;;;;;39.67;18.30;;;16.10;42.80;;;;;;5020370;28;20049;-71
2022/03/13 11:40:05;;;;;;;38.53;17.58;;;15.80;43.30;;;;;;4993525;28;20372;-69
2022/03/13 11:42:56;;;;;;;38.92;18.27;;;16.00;44.20;;;;;;5019790;28;20061;-71
2022/03/13 11:45:29;;;;;;;40.13;17.85;;;16.00;42.20;;;;;;4987207;28;20046;-69
2022/03/13 11:47:56;;;;;;;35.50;17.42;;;15.80;43.20;;;;;;5025638;28;20065;-70
2022/03/13 11:51:13;;;;;;;35.22;16.10;;;15.70;42.60;;;;;;4986481;28;20057;-71
2022/03/13 11:53:44;;;;;;;35.70;16.38;;;15.90;42.70;;;;;;4972887;28;20046;-69
2022/03/13 11:56:11;;;;;;;35.47;17.13;;;16.40;43.40;;;;;;5000213;28;20087;-69
2022/03/13 11:58:47;;;;;;;39.38;18.10;;;16.60;41.80;;;;;;5015123;28;20062;-71
2022/03/13 12:01:18;;;;;;;37.00;17.38;;;16.70;41.90;;;;;;4998353;28;20057;-70
2022/03/13 12:04:09;;;;;;;38.35;17.73;;;16.90;42.50;;;;;;5011325;28;20054;-70
2022/03/13 12:06:48;;;;;;;39.42;16.52;;;16.90;41.70;;;;;;5006699;28;20732;-71
2022/03/13 12:09:18;;;;;;;37.78;16.70;;;16.90;41.00;;;;;;5003754;28;21341;-69
2022/03/13 12:11:52;;;;;;;31.65;15.63;;;16.80;40.00;;;;;;5007781;28;20045;-70
2022/03/13 12:14:19;;;;;;;34.55;16.55;;;17.00;42.50;;;;;;5002814;28;20046;-70
2022/03/13 12:17:03;;;;;;;42.80;18.42;;;17.20;39.80;;;;;;5009217;28;20460;-70
2022/03/13 12:19:37;;;;;;;38.05;18.40;;;17.20;41.20;;;;;;4998909;28;20033;-72
2022/03/13 12:22:05;;;;;;;42.20;18.02;;;17.30;40.60;;;;;;5001627;28;20049;-71
2022/03/13 12:24:32;;;;;;;38.88;18.42;;;17.00;39.30;;;;;;5000057;28;20048;-71
2022/03/13 12:27:01;;;;;;;36.35;17.15;;;16.70;42.10;;;;;;5010158;28;20103;-70
2022/03/13 12:29:28;;;;;;;44.30;18.30;;;16.80;40.60;;;;;;5000744;28;20107;-70
2022/03/13 12:31:54;;;;;;;39.03;18.83;;;17.20;42.10;;;;;;5007158;28;20135;-71
2022/03/13 12:34:23;;;;;;;46.40;20.02;;;17.40;40.70;;;;;;5002070;28;20041;-72
2022/03/13 12:36:49;;;;;;;39.70;18.92;;;17.50;40.70;;;;;;4996792;28;20198;-69
2022/03/13 12:39:16;;;;;;;42.08;18.10;;;17.40;40.30;;;;;;4999150;28;20844;-69
2022/03/13 12:41:45;;;;;;;42.92;18.65;;;17.70;41.30;;;;;;4995830;28;20160;-68